createdAt,value
2022-12-31T00:01:15.430Z,59.25
2022-12-31T00:03:45.158Z,61.38
2022-12-31T00:06:24.708Z,61.53
2022-12-31T00:08:58.621Z,55.63
2022-12-31T00:11:27.789Z,59.47
2022-12-31T00:13:56.288Z,59.92
2022-12-31T00:16:26.704Z,57.95
2022-12-31T00:18:56.485Z,59.00
2022-12-31T00:21:23.942Z,59.38
2022-12-31T00:23:52.703Z,59.00
2022-12-31T00:26:25.491Z,59.95
2022-12-31T00:28:54.449Z,58.42
2022-12-31T00:31:25.049Z,59.93
2022-12-31T00:33:52.857Z,55.75
2022-12-31T00:36:23.202Z,57.40
2022-12-31T00:38:54.725Z,57.47
2022-12-31T00:41:23.827Z,58.15
2022-12-31T00:43:51.810Z,63.93
2022-12-31T00:46:21.895Z,57.83
2022-12-31T00:48:49.722Z,63.33
2022-12-31T00:51:21.385Z,61.05
2022-12-31T00:53:50.146Z,55.38
2022-12-31T00:56:20.580Z,62.47
2022-12-31T00:58:48.664Z,60.33
2022-12-31T01:01:26.939Z,56.70
2022-12-31T01:03:59.407Z,61.20
2022-12-31T01:06:26.892Z,61.75
2022-12-31T01:08:55.946Z,62.70
2022-12-31T01:11:24.608Z,63.55
2022-12-31T01:13:54.774Z,66.10
2022-12-31T01:16:25.316Z,62.08
2022-12-31T01:18:53.048Z,68.00
2022-12-31T01:21:21.514Z,67.87
2022-12-31T01:23:49.039Z,66.00
2022-12-31T01:26:19.002Z,59.80
2022-12-31T01:28:47.028Z,63.20
2022-12-31T01:31:18.622Z,60.55
2022-12-31T01:33:46.567Z,61.87
2022-12-31T01:36:20.375Z,60.42
2022-12-31T01:38:53.540Z,60.10
2022-12-31T01:41:24.371Z,60.22
2022-12-31T01:43:57.360Z,63.53
2022-12-31T01:46:52.015Z,64.70
2022-12-31T01:49:26.769Z,63.38
2022-12-31T01:52:34.967Z,62.60
2022-12-31T01:55:15.201Z,54.47
2022-12-31T01:57:44.861Z,61.17
2022-12-31T02:00:14.611Z,61.43
2022-12-31T02:02:44.835Z,59.53
2022-12-31T02:05:27.551Z,59.13
2022-12-31T02:07:58.189Z,58.53
2022-12-31T02:10:25.920Z,61.60
2022-12-31T02:12:53.451Z,62.33
2022-12-31T02:15:27.082Z,61.25
2022-12-31T02:18:23.628Z,53.17
2022-12-31T02:21:15.220Z,55.83
2022-12-31T02:24:21.584Z,53.40
2022-12-31T02:26:57.937Z,53.80
2022-12-31T02:29:49.224Z,53.15
2022-12-31T02:32:25.771Z,51.13
2022-12-31T02:34:58.330Z,60.85
2022-12-31T02:37:29.475Z,54.22
2022-12-31T02:39:58.169Z,52.33
2022-12-31T02:42:26.074Z,59.28
2022-12-31T02:44:53.490Z,54.97
2022-12-31T02:47:30.138Z,51.65
2022-12-31T02:50:06.879Z,53.33
2022-12-31T02:52:52.786Z,54.33
2022-12-31T02:55:42.080Z,48.97
2022-12-31T02:58:50.742Z,48.05
2022-12-31T03:01:47.459Z,43.65
2022-12-31T03:04:34.481Z,45.15
2022-12-31T03:07:18.269Z,45.23
2022-12-31T03:09:45.618Z,46.03
2022-12-31T03:12:33.037Z,45.80
2022-12-31T03:15:01.020Z,43.83
2022-12-31T03:17:28.557Z,46.78
2022-12-31T03:20:14.977Z,41.67
2022-12-31T03:22:43.831Z,40.33
2022-12-31T03:25:33.750Z,41.30
2022-12-31T03:28:04.105Z,44.15
2022-12-31T03:30:32.488Z,45.25
2022-12-31T03:33:00.916Z,50.37
2022-12-31T03:35:30.043Z,46.17
2022-12-31T03:37:58.480Z,41.10
2022-12-31T03:40:28.033Z,48.42
2022-12-31T03:42:56.054Z,46.83
2022-12-31T03:45:24.506Z,47.40
2022-12-31T03:47:52.710Z,49.38
2022-12-31T03:50:20.834Z,44.00
2022-12-31T03:52:48.282Z,49.80
2022-12-31T03:55:15.938Z,48.95
2022-12-31T03:57:43.633Z,50.93
2022-12-31T04:00:15.128Z,48.83
2022-12-31T04:02:42.680Z,49.20
2022-12-31T04:05:10.930Z,43.63
2022-12-31T04:07:38.954Z,48.10
2022-12-31T04:10:08.473Z,56.03
2022-12-31T04:12:37.527Z,52.10
2022-12-31T04:15:05.786Z,59.45
2022-12-31T04:17:33.783Z,52.20
2022-12-31T04:20:05.297Z,55.95
2022-12-31T04:22:33.102Z,53.00
2022-12-31T04:25:00.523Z,56.67
2022-12-31T04:27:27.991Z,60.78
2022-12-31T04:29:55.423Z,55.72
2022-12-31T04:32:22.763Z,57.70
2022-12-31T04:34:50.275Z,51.77
2022-12-31T04:37:17.725Z,50.50
2022-12-31T04:39:45.123Z,55.97
2022-12-31T04:42:12.883Z,51.63
2022-12-31T04:44:40.417Z,43.90
2022-12-31T04:47:07.756Z,44.57
2022-12-31T04:49:35.147Z,44.10
2022-12-31T04:52:02.536Z,44.70
2022-12-31T04:54:30.238Z,42.78
2022-12-31T04:56:57.982Z,42.50
2022-12-31T04:59:25.926Z,41.13
2022-12-31T05:01:53.559Z,38.42
2022-12-31T05:04:21.089Z,38.97
2022-12-31T05:06:48.651Z,39.78
2022-12-31T05:09:16.097Z,43.65
2022-12-31T05:11:43.594Z,40.00
2022-12-31T05:14:11.660Z,38.35
2022-12-31T05:16:40.269Z,39.35
2022-12-31T05:19:09.976Z,39.92
2022-12-31T05:21:37.397Z,37.80
2022-12-31T05:24:06.163Z,36.40
2022-12-31T05:26:33.616Z,38.58
2022-12-31T05:29:01.454Z,38.17
2022-12-31T05:31:29.200Z,35.15
2022-12-31T05:33:57.083Z,39.28
2022-12-31T05:36:25.078Z,38.33
2022-12-31T05:38:52.448Z,33.92
2022-12-31T05:41:19.948Z,38.20
2022-12-31T05:43:47.308Z,40.47
2022-12-31T05:46:16.530Z,38.22
2022-12-31T05:48:43.949Z,40.47
2022-12-31T05:51:11.518Z,36.75
2022-12-31T05:53:40.466Z,37.55
2022-12-31T05:56:07.861Z,34.92
2022-12-31T05:58:36.347Z,37.35
2022-12-31T06:01:03.834Z,33.50
2022-12-31T06:03:32.033Z,38.50
2022-12-31T06:06:01.898Z,35.15
2022-12-31T06:08:29.355Z,34.22
2022-12-31T06:10:57.433Z,39.00
2022-12-31T06:13:24.931Z,32.63
2022-12-31T06:15:52.429Z,31.92
2022-12-31T06:18:20.251Z,29.08
2022-12-31T06:20:50.617Z,29.65
2022-12-31T06:23:18.263Z,35.35
2022-12-31T06:25:45.682Z,36.00
2022-12-31T06:28:20.013Z,37.05
2022-12-31T06:30:48.511Z,35.28
2022-12-31T06:33:15.996Z,33.95
2022-12-31T06:35:43.511Z,38.47
2022-12-31T06:38:11.031Z,34.13
2022-12-31T06:40:38.567Z,35.53
2022-12-31T06:43:07.429Z,37.97
2022-12-31T06:45:34.804Z,36.22
2022-12-31T06:48:02.150Z,33.20
2022-12-31T06:50:29.921Z,35.37
2022-12-31T06:52:57.728Z,31.13
2022-12-31T06:55:25.487Z,35.53
2022-12-31T06:57:53.538Z,35.15
2022-12-31T07:00:21.831Z,34.35
2022-12-31T07:03:25.950Z,37.53
2022-12-31T07:06:02.737Z,31.75
2022-12-31T07:08:41.615Z,28.73
2022-12-31T07:11:32.784Z,28.70
2022-12-31T07:14:32.790Z,29.13
2022-12-31T07:17:36.048Z,29.03
2022-12-31T07:20:11.024Z,31.80
2022-12-31T07:22:39.194Z,33.00
2022-12-31T07:25:08.251Z,30.88
2022-12-31T07:28:02.895Z,28.35
2022-12-31T07:30:42.025Z,27.73
2022-12-31T07:33:27.553Z,28.23
2022-12-31T07:36:17.044Z,26.13
2022-12-31T07:38:53.538Z,26.00
2022-12-31T07:41:42.677Z,28.33
2022-12-31T07:44:37.743Z,25.93
2022-12-31T07:47:12.465Z,29.70
2022-12-31T07:49:43.725Z,26.27
2022-12-31T07:52:11.303Z,25.98
2022-12-31T07:54:39.558Z,30.92
2022-12-31T07:57:07.502Z,46.27
2022-12-31T07:59:46.685Z,61.53
2022-12-31T08:02:29.555Z,40.10
2022-12-31T08:05:27.382Z,39.60
2022-12-31T08:08:36.794Z,32.45
2022-12-31T08:12:04.591Z,47.13
2022-12-31T08:14:36.734Z,26.83
2022-12-31T08:17:04.493Z,25.08
2022-12-31T08:19:33.467Z,24.70
2022-12-31T08:22:14.880Z,25.23
2022-12-31T08:24:52.145Z,27.40
2022-12-31T08:27:32.131Z,20.10
2022-12-31T08:30:09.254Z,19.73
2022-12-31T08:32:52.848Z,17.98
2022-12-31T08:35:41.801Z,21.27
2022-12-31T08:38:27.661Z,18.80
2022-12-31T08:41:27.283Z,21.02
2022-12-31T08:44:13.091Z,19.60
2022-12-31T08:47:07.494Z,21.90
2022-12-31T08:49:36.098Z,20.90
2022-12-31T08:52:04.258Z,21.50
2022-12-31T08:54:31.919Z,21.08
2022-12-31T08:57:15.049Z,20.35
2022-12-31T09:00:01.554Z,20.50
2022-12-31T09:02:48.076Z,21.30
2022-12-31T09:05:39.363Z,21.93
2022-12-31T09:08:45.350Z,22.52
2022-12-31T09:11:24.197Z,23.05
2022-12-31T09:14:12.468Z,21.02
2022-12-31T09:16:48.973Z,23.33
2022-12-31T09:19:16.494Z,24.27
2022-12-31T09:21:46.826Z,24.63
2022-12-31T09:24:16.121Z,23.67
2022-12-31T09:27:05.441Z,23.80
2022-12-31T09:30:04.319Z,23.92
2022-12-31T09:33:01.747Z,21.07
2022-12-31T09:35:50.366Z,19.75
2022-12-31T09:38:26.764Z,21.10
2022-12-31T09:41:28.400Z,20.58
2022-12-31T09:44:25.310Z,19.45
2022-12-31T09:46:59.805Z,20.57
2022-12-31T09:49:55.057Z,19.80
2022-12-31T09:52:40.878Z,20.00
2022-12-31T09:55:08.177Z,20.80
2022-12-31T09:57:42.443Z,23.95
2022-12-31T10:00:16.517Z,18.47
2022-12-31T10:03:07.485Z,20.73
2022-12-31T10:05:53.531Z,20.13
2022-12-31T10:08:38.952Z,19.67
2022-12-31T10:11:19.998Z,18.23
2022-12-31T10:14:26.460Z,18.60
2022-12-31T10:17:18.977Z,17.67
2022-12-31T10:19:58.120Z,18.33
2022-12-31T10:22:43.343Z,16.85
2022-12-31T10:25:39.658Z,17.13
2022-12-31T10:28:18.574Z,16.63
2022-12-31T10:31:15.169Z,16.70
2022-12-31T10:33:51.655Z,17.40
2022-12-31T10:36:43.067Z,16.80
2022-12-31T10:39:45.082Z,16.73
2022-12-31T10:42:40.646Z,16.80
2022-12-31T10:45:35.941Z,16.92
2022-12-31T10:48:40.470Z,17.23
2022-12-31T10:51:29.350Z,14.38
2022-12-31T10:54:15.998Z,15.73
2022-12-31T10:57:28.548Z,15.13
2022-12-31T11:00:11.244Z,16.70
2022-12-31T11:02:42.694Z,38.42
2022-12-31T11:06:05.723Z,41.75
2022-12-31T11:08:52.351Z,30.13
2022-12-31T11:11:32.436Z,39.00
2022-12-31T11:14:57.247Z,41.17
2022-12-31T11:17:33.743Z,34.50
2022-12-31T11:20:31.323Z,35.75
2022-12-31T11:23:17.353Z,36.65
2022-12-31T11:26:28.957Z,40.90
2022-12-31T11:29:09.871Z,30.90
2022-12-31T11:32:14.535Z,32.25
2022-12-31T11:34:44.794Z,40.08
2022-12-31T11:37:47.441Z,52.90
2022-12-31T11:40:43.795Z,43.33
2022-12-31T11:43:31.387Z,41.30
2022-12-31T11:46:16.840Z,41.25
2022-12-31T11:49:20.029Z,48.72
2022-12-31T11:52:13.527Z,40.33
2022-12-31T11:55:19.776Z,40.80
2022-12-31T11:57:50.588Z,36.75
2022-12-31T12:00:24.621Z,43.17
2022-12-31T12:02:57.094Z,57.58
2022-12-31T12:05:27.010Z,38.67
2022-12-31T12:07:54.839Z,33.37
2022-12-31T12:10:30.456Z,95.28
2022-12-31T12:13:27.544Z,66.72
2022-12-31T12:16:07.098Z,39.28
2022-12-31T12:18:41.210Z,73.68
2022-12-31T12:21:21.459Z,26.87
2022-12-31T12:24:16.840Z,27.65
2022-12-31T12:26:47.947Z,29.75
2022-12-31T12:29:34.679Z,23.58
2022-12-31T12:32:04.429Z,24.60
2022-12-31T12:34:40.153Z,26.23
2022-12-31T12:37:30.355Z,27.02
2022-12-31T12:40:11.609Z,24.38
2022-12-31T12:42:47.903Z,26.55
2022-12-31T12:45:18.713Z,25.98
2022-12-31T12:47:49.674Z,28.53
2022-12-31T12:50:22.284Z,29.88
2022-12-31T12:53:14.477Z,28.80
2022-12-31T12:55:54.672Z,26.95
2022-12-31T12:58:49.545Z,24.08
2022-12-31T13:01:43.155Z,19.97
2022-12-31T13:04:35.694Z,23.60
2022-12-31T13:07:30.751Z,24.50
2022-12-31T13:10:22.887Z,26.30
2022-12-31T13:13:25.512Z,29.75
2022-12-31T13:16:19.594Z,27.30
2022-12-31T13:18:53.471Z,28.67
2022-12-31T13:21:28.677Z,29.92
2022-12-31T13:24:05.530Z,26.77
2022-12-31T13:26:36.354Z,26.63
2022-12-31T13:29:04.757Z,24.17
2022-12-31T13:31:40.036Z,39.92
2022-12-31T13:34:14.676Z,36.15
2022-12-31T13:36:43.683Z,39.60
2022-12-31T13:39:23.999Z,36.95
2022-12-31T13:42:10.597Z,36.23
2022-12-31T13:44:50.309Z,33.88
2022-12-31T13:47:38.745Z,38.53
2022-12-31T13:50:33.510Z,38.22
2022-12-31T13:53:27.370Z,32.13
2022-12-31T13:56:03.857Z,37.50
2022-12-31T13:58:50.209Z,38.55
2022-12-31T14:01:34.322Z,39.17
2022-12-31T14:04:16.834Z,36.97
2022-12-31T14:07:07.459Z,32.97
2022-12-31T14:09:36.378Z,38.57
2022-12-31T14:12:24.166Z,40.25
2022-12-31T14:15:13.483Z,35.78
2022-12-31T14:18:09.367Z,36.58
2022-12-31T14:20:47.863Z,33.38
2022-12-31T14:23:43.539Z,30.70
2022-12-31T14:26:33.185Z,31.38
2022-12-31T14:29:20.856Z,32.38
2022-12-31T14:31:52.160Z,35.92
2022-12-31T14:34:34.605Z,35.42
2022-12-31T14:37:14.148Z,29.23
2022-12-31T14:39:54.720Z,26.83
2022-12-31T14:42:56.697Z,27.20
2022-12-31T14:45:46.697Z,28.95
2022-12-31T14:48:26.036Z,29.55
2022-12-31T14:50:54.101Z,25.17
2022-12-31T14:53:27.113Z,25.50
2022-12-31T14:56:03.988Z,29.35
2022-12-31T14:58:38.363Z,25.52
2022-12-31T15:01:19.617Z,32.50
2022-12-31T15:03:47.265Z,24.93
2022-12-31T15:06:23.992Z,25.40
2022-12-31T15:09:16.259Z,27.75
2022-12-31T15:12:10.504Z,26.15
2022-12-31T15:15:26.987Z,181.98
2022-12-31T15:18:07.529Z,97.90
2022-12-31T15:20:55.319Z,62.33
2022-12-31T15:23:27.989Z,47.13
2022-12-31T15:25:59.988Z,48.60
2022-12-31T15:28:35.945Z,59.40
2022-12-31T15:31:19.896Z,97.20
2022-12-31T15:34:04.735Z,79.03
2022-12-31T15:36:35.923Z,67.53
2022-12-31T15:39:12.531Z,73.18
2022-12-31T15:42:10.288Z,108.20
2022-12-31T15:44:44.954Z,118.50
2022-12-31T15:47:33.550Z,90.32
2022-12-31T15:50:17.467Z,111.45
2022-12-31T15:52:52.840Z,92.97
2022-12-31T15:55:33.442Z,107.45
2022-12-31T15:58:07.219Z,99.37
2022-12-31T16:01:15.022Z,87.43
2022-12-31T16:03:46.901Z,87.78
2022-12-31T16:06:16.574Z,59.08
2022-12-31T16:08:49.167Z,81.38
2022-12-31T16:11:17.678Z,83.17
2022-12-31T16:13:51.094Z,102.10
2022-12-31T16:16:24.130Z,125.25
2022-12-31T16:18:53.922Z,105.63
2022-12-31T16:21:35.562Z,96.30
2022-12-31T16:24:23.866Z,76.27
2022-12-31T16:26:55.362Z,63.47
2022-12-31T16:29:24.845Z,78.68
2022-12-31T16:31:54.171Z,63.60
2022-12-31T16:34:27.423Z,51.45
2022-12-31T16:36:59.988Z,49.80
2022-12-31T16:39:39.201Z,90.20
2022-12-31T16:42:23.027Z,89.97
2022-12-31T16:44:52.757Z,120.88
2022-12-31T16:47:32.747Z,142.25
2022-12-31T16:50:08.144Z,98.13
2022-12-31T16:52:42.542Z,107.35
2022-12-31T16:55:16.867Z,66.63
2022-12-31T16:57:57.054Z,59.22
2022-12-31T17:00:28.216Z,55.60
2022-12-31T17:03:05.677Z,68.57
2022-12-31T17:05:36.562Z,80.13
2022-12-31T17:08:25.093Z,89.35
2022-12-31T17:10:52.832Z,94.53
2022-12-31T17:13:30.791Z,83.30
2022-12-31T17:15:59.838Z,88.50
2022-12-31T17:18:35.394Z,51.55
2022-12-31T17:21:09.716Z,75.28
2022-12-31T17:23:39.128Z,100.03
2022-12-31T17:26:21.187Z,72.30
2022-12-31T17:28:51.430Z,43.30
2022-12-31T17:31:41.194Z,34.67
2022-12-31T17:38:24.300Z,31.88
2022-12-31T17:40:56.060Z,32.25
2022-12-31T17:43:25.757Z,40.83
2022-12-31T17:45:56.401Z,52.33
2022-12-31T17:48:27.875Z,60.17
2022-12-31T17:50:59.338Z,55.35
2022-12-31T17:53:30.346Z,46.63
2022-12-31T17:56:03.397Z,45.10
2022-12-31T17:58:53.803Z,44.53
2022-12-31T18:01:23.733Z,43.17
2022-12-31T18:03:51.432Z,39.85
2022-12-31T18:06:22.106Z,30.70
2022-12-31T18:08:49.685Z,26.60
2022-12-31T18:11:24.353Z,25.80
2022-12-31T18:13:53.500Z,31.83
2022-12-31T18:16:20.932Z,41.25
2022-12-31T18:18:48.495Z,63.80
2022-12-31T18:21:32.871Z,58.10
2022-12-31T18:26:30.192Z,51.42
2022-12-31T18:29:01.668Z,48.47
2022-12-31T18:31:31.151Z,39.85
2022-12-31T18:33:59.547Z,38.97
2022-12-31T18:36:28.496Z,36.10
2022-12-31T18:38:56.140Z,41.38
2022-12-31T18:41:28.248Z,60.30
2022-12-31T18:43:56.358Z,59.65
2022-12-31T18:46:25.127Z,49.93
2022-12-31T18:48:58.267Z,44.38
2022-12-31T18:51:32.152Z,41.15
2022-12-31T18:54:04.182Z,44.78
2022-12-31T18:56:32.442Z,40.70
2022-12-31T18:59:00.125Z,30.77
2022-12-31T19:01:27.578Z,31.92
2022-12-31T19:04:00.873Z,34.83
2022-12-31T19:06:29.676Z,44.47
2022-12-31T19:09:00.872Z,43.10
2022-12-31T19:11:28.920Z,38.73
2022-12-31T19:13:56.357Z,33.08
2022-12-31T19:16:23.949Z,28.60
2022-12-31T19:18:51.436Z,56.75
2022-12-31T19:21:22.971Z,38.28
2022-12-31T19:23:51.257Z,32.43
2022-12-31T19:26:21.202Z,34.72
2022-12-31T19:28:51.093Z,41.45
2022-12-31T19:31:19.067Z,40.17
2022-12-31T19:33:46.604Z,41.05
2022-12-31T19:36:19.883Z,37.33
2022-12-31T19:38:47.780Z,37.55
2022-12-31T19:41:20.018Z,37.72
2022-12-31T19:43:48.409Z,34.92
2022-12-31T19:46:18.141Z,35.30
2022-12-31T19:48:46.003Z,33.40
2022-12-31T19:51:18.272Z,34.08
2022-12-31T19:53:46.913Z,33.33
2022-12-31T19:56:17.471Z,28.73
2022-12-31T19:58:45.147Z,26.83
2022-12-31T20:01:24.196Z,26.13
2022-12-31T20:03:52.464Z,29.25
2022-12-31T20:06:20.232Z,33.05
2022-12-31T20:08:47.689Z,29.75
2022-12-31T20:11:18.961Z,34.08
2022-12-31T20:13:47.595Z,37.63
2022-12-31T20:16:18.054Z,32.67
2022-12-31T20:18:47.149Z,30.70
2022-12-31T20:21:20.133Z,26.48
2022-12-31T20:23:48.928Z,26.02
2022-12-31T20:26:18.223Z,27.07
2022-12-31T20:28:46.355Z,25.58
2022-12-31T20:31:20.205Z,25.67
2022-12-31T20:33:49.917Z,19.05
2022-12-31T20:36:18.605Z,21.27
2022-12-31T20:38:46.415Z,33.07
2022-12-31T20:41:19.683Z,31.40
2022-12-31T20:43:47.426Z,35.97
2022-12-31T20:46:20.986Z,39.83
2022-12-31T20:48:50.035Z,41.55
2022-12-31T20:51:18.356Z,32.13
2022-12-31T20:53:48.394Z,27.58
2022-12-31T20:56:17.898Z,27.65
2022-12-31T20:58:45.607Z,28.67
2022-12-31T21:01:14.212Z,24.75
2022-12-31T21:06:35.328Z,22.40
2022-12-31T21:09:06.375Z,19.88
2022-12-31T21:11:52.494Z,17.73
2022-12-31T21:14:21.002Z,14.98
2022-12-31T21:16:48.419Z,14.50
2022-12-31T21:19:15.990Z,15.20
2022-12-31T21:21:43.361Z,14.00
2022-12-31T21:24:11.139Z,11.98
2022-12-31T21:26:38.591Z,13.40
2022-12-31T21:29:08.110Z,13.80
2022-12-31T21:31:35.636Z,13.40
2022-12-31T21:34:03.045Z,13.50
2022-12-31T21:36:30.455Z,12.02
2022-12-31T21:38:58.381Z,12.65
2022-12-31T21:41:44.897Z,13.10
2022-12-31T21:44:12.324Z,11.18
2022-12-31T21:46:54.652Z,12.15
2022-12-31T21:49:27.235Z,13.80
2022-12-31T21:52:12.994Z,13.30
2022-12-31T21:55:09.504Z,15.77
2022-12-31T21:57:52.185Z,17.95
2022-12-31T22:00:43.565Z,21.00
2022-12-31T22:03:24.734Z,22.45
2022-12-31T22:06:02.184Z,23.55
2022-12-31T22:08:31.186Z,20.23
2022-12-31T22:10:59.018Z,30.50
2022-12-31T22:13:26.980Z,38.50
2022-12-31T22:16:04.006Z,46.00
2022-12-31T22:18:34.606Z,48.28
2022-12-31T22:21:15.707Z,32.03
2022-12-31T22:23:46.958Z,39.80
2022-12-31T22:26:16.097Z,20.15
2022-12-31T22:28:44.974Z,21.23
2022-12-31T22:31:30.695Z,15.98
2022-12-31T22:33:58.964Z,14.70
2022-12-31T22:36:26.965Z,16.77
2022-12-31T22:38:58.700Z,19.60
2022-12-31T22:41:28.238Z,19.98
2022-12-31T22:44:03.723Z,19.70
2022-12-31T22:46:33.217Z,19.37
2022-12-31T22:49:02.535Z,15.23
2022-12-31T22:51:55.158Z,17.23
2022-12-31T22:54:18.614Z,19.20
2022-12-31T22:56:46.044Z,21.15
2022-12-31T22:59:13.550Z,17.23
2022-12-31T23:01:41.263Z,19.05
2022-12-31T23:04:08.978Z,20.10
2022-12-31T23:06:43.879Z,18.58
2022-12-31T23:09:31.632Z,19.55
2022-12-31T23:11:59.761Z,19.93
2022-12-31T23:14:45.873Z,25.35
2022-12-31T23:17:37.537Z,25.42
2022-12-31T23:20:25.860Z,20.92
2022-12-31T23:23:11.747Z,21.58
2022-12-31T23:25:50.364Z,20.50
2022-12-31T23:28:23.322Z,21.02
2022-12-31T23:30:52.007Z,20.58
2022-12-31T23:33:22.134Z,21.08
2022-12-31T23:35:49.631Z,20.25
2022-12-31T23:38:18.630Z,19.13
2022-12-31T23:40:49.071Z,14.93
2022-12-31T23:43:22.236Z,15.52
2022-12-31T23:45:51.959Z,18.70
2022-12-31T23:48:20.039Z,20.48
2022-12-31T23:50:53.552Z,18.17
2022-12-31T23:53:25.172Z,20.05
2022-12-31T23:55:53.177Z,21.65
2022-12-31T23:58:22.190Z,23.02
